Mc Kees Rocks, Pennsylvania
Current Conditions -  °F | °C
As of 4:51 PM on Monday 24 Nov 2014 (Local Time) from KPIT Reporting Station
Few Clouds Few Clouds  
Wind Chill: 60°   Ceiling: Unl
Heat Index: 60°   Visibility: 10mi
Dew Point: 45°   Wind: 17mph
Humidity: 57%   Direction: 260°W
Pressure: 29.57"   Gusts: 29mph
Location:  40.47°N, 80.06°W
Report Text: KPIT 242151Z 26015G25KT 10SM FEW046 16/07 A2957 RMK AO2 PK WND 24037/2054 SLP018 T01560072
Loading
Personal Weather Stations






























Interactive Weather Map New forecast layout! Learn more

10-Day Weather Forecast

Advertisements
Track Severe Weather on mobile